• Join FlightAware (Why Join?)
  • Login
  • US Flag 
Trick or treat! (Boo!!) 
07:27AM EDT


 

Airport Tracker/Info


-or-


 

Live Flight TrackerFlight Track Log ✈ SWA718 ✈ 29-Apr-2013 ✈ KMDW - KOMA

Flight Track Log - Related Links

Times and Time Zones

All times are in EDT time to prevent confusion due to time zone crossing. See the SWA718 flight status page for this flight to view local times or setup timezone preferences in your user account.

Time Position Orientation Groundspeed Altitude Reporting Facility
EDT Latitude Longitude Course Direction KTS MPH feet Rate Location/Type
11:52PM 41.7719 -87.9006 273° West 222 255 6,300  Level Chicago Center
11:53PM 41.7711 -87.9956 269° West 252 290 9,700 2,820 Climbing Chicago Center
11:54PM 41.7681 -88.1242 268° West 300 345 12,100 2,460 Climbing Chicago Center
11:55PM 41.7644 -88.2436 268° West 324 373 14,700 2,880 Climbing Chicago Center
11:56PM 41.7333 -88.5250 270° West  Level FlightAware Approximate
11:56PM 41.7644 -88.3550 270° West 307 353 18,000  Level Chicago Center
11:57PM 41.7697 -88.4711 274° West 313 360 19,900 1,620 Climbing Chicago Center
11:58PM 41.7769 -88.5986 274° West 344 396 21,300 1,380 Climbing Chicago Center
11:59PM 41.7858 -88.7372 275° West 373 429 22,800 1,560 Climbing Chicago Center
12:00AM 41.7931 -88.8814 274° West 389 448 24,500 1,620 Climbing Chicago Center
12:01AM 41.7894 -89.0289 268° West 398 458 26,100 1,440 Climbing Chicago Center
12:02AM 41.7858 -89.1783 268° West 404 465 27,500 1,560 Climbing Chicago Center
12:03AM 41.7828 -89.3314 269° West 413 475 29,300 1,860 Climbing Chicago Center
12:04AM 41.7803 -89.4775 269° West 399 459 31,400 1,800 Climbing Chicago Center
12:05AM 41.7758 -89.6439 268° West 387 445 33,000 1,140 Climbing Chicago Center
12:06AM 41.7728 -89.7914 268° West 398 458 33,700 840 Climbing Chicago Center
12:07AM 41.7689 -89.9419 268° West 407 468 34,800 1,080 Climbing Chicago Center
12:08AM 41.7656 -90.0922 268° West 407 468 35,900 540 Climbing Chicago Center
12:09AM 41.7600 -90.2422 267° West 407 468 36,000  Climbing Chicago Center
12:10AM 41.7542 -90.3950 267° West 410 472 36,000  Level Chicago Center
12:11AM 41.7436 -90.5447 265° West 407 468 36,000  Level Chicago Center
12:12AM 41.7361 -90.6814 266° West 406 467 36,000  Level Chicago Center
12:13AM 41.7275 -90.8317 266° West 407 468 36,000  Level Chicago Center
12:14AM 41.7175 -90.9833 265° West 410 472 36,000  Level Chicago Center
12:15AM 41.6989 -91.1675 262° West 416 479 36,000  Level Chicago Center
12:16AM 41.6856 -91.3228 263° West 420 483 36,000  Level Chicago Center
12:17AM 41.6711 -91.4772 263° West 420 483 36,000  Level Chicago Center
12:18AM 41.6569 -91.6311 263° West 420 483 36,000  Level Chicago Center
12:19AM 41.6381 -91.7828 261° West 419 482 36,000  Level Chicago Center
12:20AM 41.6033 -91.9286 252° West 417 480 36,000  Level Chicago Center
12:21AM 41.5703 -92.0761 253° West 417 480 36,000  Level Chicago Center
12:22AM 41.5344 -92.2242 252° West 422 486 36,000  Level Chicago Center
12:23AM 41.4964 -92.3739 251° West 427 491 36,000  Level Chicago Center
12:24AM 41.4597 -92.5164 251° West 428 493 36,000  Level Chicago Center
12:25AM 41.4214 -92.6619 251° West 422 486 36,000  Level Minneapolis Center
12:26AM 41.3825 -92.8053 250° West 418 481 36,000  Level Minneapolis Center
12:27AM 41.3397 -92.9472 248° West 418 481 36,000  Level Minneapolis Center
12:28AM 41.2969 -93.0867 248° West 415 478 36,000  Level Minneapolis Center
12:29AM 41.2506 -93.2253 246° West 415 478 36,000  Level Minneapolis Center
12:30AM 41.2058 -93.3628 247° West 413 475 36,000  Level Minneapolis Center
12:31AM 41.1622 -93.5019 247° West 413 475 36,000  Level Minneapolis Center
12:32AM 41.1197 -93.6375 247° West 406 467 36,000 -60 Level Minneapolis Center
12:33AM 41.0753 -93.7769 247° West 411 473 35,900 -1,080 Descending Minneapolis Center
12:34AM 41.0306 -93.9206 248° West 418 481 33,900 -2,520 Descending Minneapolis Center
12:35AM 40.9906 -94.0619 249° West 420 483 30,900 -3,180 Descending Minneapolis Center
12:36AM 40.9764 -94.2350 264° West 414 476 27,500 -2,940 Descending Minneapolis Center
12:37AM 40.9978 -94.3725 282° West 401 461 25,100 -2,340 Descending Minneapolis Center
12:38AM 41.0158 -94.5086 280° West 386 444 22,800 -2,340 Descending Minneapolis Center
12:39AM 41.0344 -94.6417 281° West 366 421 20,500 -2,280 Descending Minneapolis Center
12:40AM 41.0525 -94.7711 281° West 359 413 18,300 -2,400 Descending Minneapolis Center
12:41AM 41.0817 -94.8872 288° West 346 398 15,900 -2,400 Descending Minneapolis Center
12:41AM 41.0872 -94.9336 279° West 337 388 15,100 -2,100 Descending Minneapolis Center
12:42AM 41.0872 -95.0131 270° West 334 384 13,700 -1,980 Descending Minneapolis Center
12:42AM 41.1125 -95.0467 315° West 316 364 13,100 -1,920 Descending Minneapolis Center
12:43AM 41.1242 -95.1169 282° West 316 364 11,800 -1,980 Descending Minneapolis Center
12:43AM 41.1506 -95.1664 305° West 302 348 10,900 -1,620 Descending Minneapolis Center
12:44AM 41.1600 -95.2153 284° West 302 348 10,200 -1,200 Descending Minneapolis Center
12:44AM 41.1847 -95.2644 304° West 274 315 9,600 -1,320 Descending Minneapolis Center
12:45AM 41.1914 -95.3031 283° West 275 316 8,900 -1,680 Descending Minneapolis Center
12:45AM 41.1997 -95.3569 282° West 247 284 7,900 -1,620 Descending Minneapolis Center
12:46AM 41.1953 -95.3950 261° West 259 298 7,300 -1,500 Descending Minneapolis Center
12:46AM 41.2025 -95.4564 279° West 248 285 6,400 -1,500 Descending Minneapolis Center
12:47AM 41.1997 -95.4864 263° West 252 290 5,800 -1,740 Descending Minneapolis Center
12:47AM 41.2069 -95.5472 279° West 247 284 4,700 -1,620 Descending Minneapolis Center
12:48AM 41.2056 -95.5775 267° West 249 287 4,200 -1,380 Descending Minneapolis Center
12:49AM 41.2131 -95.6381 279° West 249 287 3,300 -1,200 Descending Minneapolis Center
12:49AM 41.2114 -95.6681 266° West 248 285 3,000 -300 Descending Minneapolis Center
12:50AM 41.2144 -95.7211 274° West 225 259 3,000  Level Minneapolis Center
12:50AM 41.2161 -95.7483 275° West 236 272 3,000  Level Minneapolis Center
12:51AM 41.2192 -95.7897 276° West 180 207 3,000 -120 Level Minneapolis Center
12:51AM 41.2206 -95.8131 275° West 203 234 2,900 -540 Descending Minneapolis Center
12:52AM 41.2433 -95.8394 319° Northwest 169 194 2,500 -900 Descending Minneapolis Center
12:52AM 41.2558 -95.8500 328° Northwest 175 201 2,000 -1,200 Descending Minneapolis Center
12:53AM 41.2794 -95.8797 317° Northwest 156 180 1,300 -840 Descending Minneapolis Center
12:53AM 41.2919 -95.8856 341° North 166 191 1,000 -540 Descending Minneapolis Center
12:55AM 41.3000 -95.8833 331° Northwest  Level FlightAware Approximate